createdAt,value
2019-02-19T00:02:22.682Z,21.10
2019-02-19T00:04:51.095Z,13.90
2019-02-19T00:07:19.498Z,13.70
2019-02-19T00:09:47.918Z,14.17
2019-02-19T00:12:16.337Z,11.90
2019-02-19T00:14:44.756Z,12.10
2019-02-19T00:17:13.167Z,12.17
2019-02-19T00:19:41.640Z,12.70
2019-02-19T00:22:10.072Z,16.13
2019-02-19T00:24:38.494Z,19.57
2019-02-19T00:27:06.915Z,14.33
2019-02-19T00:29:35.333Z,19.20
2019-02-19T00:32:03.751Z,14.60
2019-02-19T00:34:32.153Z,14.97
2019-02-19T00:37:00.553Z,17.00
2019-02-19T00:39:28.988Z,14.70
2019-02-19T00:41:57.392Z,11.27
2019-02-19T00:44:25.787Z,13.47
2019-02-19T00:46:54.258Z,14.03
2019-02-19T00:49:22.725Z,13.87
2019-02-19T00:51:51.164Z,13.27
2019-02-19T00:54:19.618Z,14.83
2019-02-19T00:56:48.034Z,16.37
2019-02-19T00:59:16.446Z,15.70
2019-02-19T01:01:44.948Z,11.43
2019-02-19T01:04:13.436Z,13.87
2019-02-19T01:06:41.834Z,11.30
2019-02-19T01:09:10.705Z,12.97
2019-02-19T01:11:39.190Z,14.23
2019-02-19T01:14:07.667Z,12.90
2019-02-19T01:16:36.149Z,17.53
2019-02-19T01:19:04.715Z,13.03
2019-02-19T01:21:33.125Z,11.23
2019-02-19T01:24:01.551Z,14.70
2019-02-19T01:26:29.952Z,14.90
2019-02-19T01:28:58.463Z,16.93
2019-02-19T01:31:26.875Z,17.27
2019-02-19T01:33:55.274Z,11.87
2019-02-19T01:36:23.746Z,16.10
2019-02-19T01:38:52.175Z,15.23
2019-02-19T01:41:20.635Z,11.23
2019-02-19T01:43:49.101Z,13.83
2019-02-19T01:46:17.512Z,14.37
2019-02-19T01:48:45.897Z,14.23
2019-02-19T01:51:14.471Z,13.17
2019-02-19T01:53:42.866Z,13.70
2019-02-19T01:56:11.281Z,12.13
2019-02-19T01:58:39.677Z,14.80
2019-02-19T02:01:08.089Z,15.00
2019-02-19T02:03:36.500Z,12.23
2019-02-19T02:06:05.054Z,16.53
2019-02-19T02:08:33.453Z,17.50
2019-02-19T02:11:01.861Z,12.73
2019-02-19T02:13:30.258Z,12.77
2019-02-19T02:15:58.683Z,24.43
2019-02-19T02:18:27.078Z,14.00
2019-02-19T02:20:55.560Z,11.20
2019-02-19T02:23:23.957Z,14.63
2019-02-19T02:25:52.381Z,12.77
2019-02-19T02:28:20.922Z,13.27
2019-02-19T02:30:49.324Z,14.70
2019-02-19T02:33:17.750Z,14.23
2019-02-19T02:35:46.145Z,13.47
2019-02-19T02:38:14.574Z,12.67
2019-02-19T02:40:42.962Z,13.33
2019-02-19T02:43:11.359Z,13.30
2019-02-19T02:45:39.781Z,17.13
2019-02-19T02:48:08.196Z,19.03
2019-02-19T02:50:36.637Z,21.17
2019-02-19T02:53:05.045Z,25.77
2019-02-19T02:55:33.473Z,27.80
2019-02-19T02:58:01.874Z,26.87
2019-02-19T03:00:30.306Z,31.73
2019-02-19T03:02:58.715Z,26.10
2019-02-19T03:05:27.146Z,35.50
2019-02-19T03:07:57.179Z,31.20
2019-02-19T03:10:25.582Z,33.40
2019-02-19T03:12:54.004Z,32.90
2019-02-19T03:15:22.474Z,32.87
2019-02-19T03:17:50.914Z,36.87
2019-02-19T03:20:19.323Z,36.57
2019-02-19T03:22:47.757Z,28.87
2019-02-19T03:25:16.168Z,32.10
2019-02-19T03:27:44.593Z,30.53
2019-02-19T03:30:13.096Z,29.33
2019-02-19T03:32:41.487Z,46.57
2019-02-19T03:35:09.909Z,40.23
2019-02-19T03:37:38.339Z,34.87
2019-02-19T03:40:07.979Z,28.37
2019-02-19T03:42:36.523Z,34.77
2019-02-19T03:45:07.069Z,31.50
2019-02-19T03:47:35.482Z,40.67
2019-02-19T03:50:05.244Z,31.90
2019-02-19T03:52:33.658Z,38.93
2019-02-19T03:55:02.194Z,28.50
2019-02-19T03:57:30.789Z,30.33
2019-02-19T03:59:59.274Z,35.97
2019-02-19T04:02:27.742Z,30.20
2019-02-19T04:04:56.234Z,32.47
2019-02-19T04:07:24.641Z,28.33
2019-02-19T04:09:53.069Z,27.63
2019-02-19T04:12:21.466Z,31.43
2019-02-19T04:14:49.894Z,32.27
2019-02-19T04:17:18.303Z,27.57
2019-02-19T04:19:46.726Z,33.90
2019-02-19T04:22:15.141Z,31.33
2019-02-19T04:24:43.563Z,36.70
2019-02-19T04:27:11.970Z,29.50
2019-02-19T04:29:40.384Z,30.50
2019-02-19T04:32:08.815Z,33.30
2019-02-19T04:34:37.250Z,28.53
2019-02-19T04:37:05.669Z,27.67
2019-02-19T04:39:34.077Z,30.17
2019-02-19T04:42:02.497Z,31.43
2019-02-19T04:44:30.904Z,33.60
2019-02-19T04:46:59.396Z,30.40
2019-02-19T04:49:27.801Z,28.40
2019-02-19T04:51:56.232Z,34.60
2019-02-19T04:54:24.650Z,33.53
2019-02-19T04:56:53.062Z,36.90
2019-02-19T04:59:21.480Z,31.60
2019-02-19T05:01:49.891Z,34.00
2019-02-19T05:04:18.322Z,33.80
2019-02-19T05:06:46.748Z,40.63
2019-02-19T05:09:15.168Z,29.17
2019-02-19T05:11:43.579Z,46.13
2019-02-19T05:14:12.000Z,32.40
2019-02-19T05:16:41.177Z,36.03
2019-02-19T05:19:09.938Z,36.93
2019-02-19T05:21:38.337Z,35.07
2019-02-19T05:24:06.949Z,35.63
2019-02-19T05:26:35.358Z,32.17
2019-02-19T05:29:03.756Z,45.07
2019-02-19T05:31:32.184Z,40.07
2019-02-19T05:34:00.592Z,50.17
2019-02-19T05:36:29.032Z,41.43
2019-02-19T05:38:57.433Z,38.00
2019-02-19T05:41:25.874Z,44.40
2019-02-19T05:43:54.250Z,48.53
2019-02-19T05:46:22.659Z,34.80
2019-02-19T05:48:54.032Z,39.10
2019-02-19T05:51:22.429Z,41.50
2019-02-19T05:53:50.858Z,42.27
2019-02-19T05:56:19.268Z,46.17
2019-02-19T05:58:47.673Z,39.83
2019-02-19T06:01:16.095Z,45.70
2019-02-19T06:03:44.515Z,43.83
2019-02-19T06:06:12.925Z,46.93
2019-02-19T06:08:41.322Z,42.40
2019-02-19T06:11:09.745Z,39.63
2019-02-19T06:13:38.144Z,45.63
2019-02-19T06:16:06.569Z,40.17
2019-02-19T06:18:34.969Z,49.87
2019-02-19T06:21:03.390Z,39.47
2019-02-19T06:23:31.883Z,44.77
2019-02-19T06:26:00.301Z,45.37
2019-02-19T06:28:28.720Z,45.70
2019-02-19T06:30:57.131Z,45.00
2019-02-19T06:33:25.599Z,40.80
2019-02-19T06:35:54.018Z,43.53
2019-02-19T06:38:22.493Z,46.83
2019-02-19T06:40:50.995Z,42.57
2019-02-19T06:43:19.401Z,48.43
2019-02-19T06:45:47.821Z,50.13
2019-02-19T06:48:16.236Z,44.60
2019-02-19T06:50:44.646Z,43.33
2019-02-19T06:53:13.049Z,48.10
2019-02-19T06:55:41.478Z,49.50
2019-02-19T06:58:09.873Z,45.53
2019-02-19T07:00:38.280Z,43.03
2019-02-19T07:03:24.503Z,40.80
2019-02-19T07:05:52.933Z,38.50
2019-02-19T07:08:21.340Z,39.33
2019-02-19T07:10:50.137Z,38.80
2019-02-19T07:13:18.538Z,37.43
2019-02-19T07:15:47.022Z,42.90
2019-02-19T07:18:15.436Z,37.53
2019-02-19T07:20:43.854Z,36.40
2019-02-19T07:23:12.260Z,37.80
2019-02-19T07:25:40.685Z,42.27
2019-02-19T07:28:09.109Z,44.93
2019-02-19T07:30:37.520Z,33.37
2019-02-19T07:33:05.955Z,36.60
2019-02-19T07:35:34.365Z,37.43
2019-02-19T07:38:02.840Z,46.50
2019-02-19T07:40:31.266Z,40.70
2019-02-19T07:42:59.688Z,33.53
2019-02-19T07:45:28.108Z,41.40
2019-02-19T07:47:56.541Z,40.07
2019-02-19T07:50:24.965Z,35.67
2019-02-19T07:52:53.365Z,53.77
2019-02-19T07:55:21.790Z,38.97
2019-02-19T07:57:50.194Z,32.40
2019-02-19T08:00:18.606Z,35.67
2019-02-19T08:02:47.035Z,34.67
2019-02-19T08:05:15.498Z,32.63
2019-02-19T08:07:43.933Z,38.77
2019-02-19T08:10:12.674Z,39.50
2019-02-19T08:12:41.097Z,41.47
2019-02-19T08:15:11.054Z,48.07
2019-02-19T08:17:39.542Z,33.70
2019-02-19T08:20:15.429Z,41.33
2019-02-19T08:22:39.595Z,36.57
2019-02-19T08:25:08.159Z,40.57
2019-02-19T08:27:36.572Z,42.13
2019-02-19T08:30:07.437Z,33.33
2019-02-19T08:32:35.860Z,29.20
2019-02-19T08:35:05.023Z,34.90
2019-02-19T08:37:33.438Z,37.30
2019-02-19T08:40:01.868Z,36.17
2019-02-19T08:42:30.346Z,34.80
2019-02-19T08:44:58.811Z,32.70
2019-02-19T08:47:27.232Z,34.90
2019-02-19T08:49:55.633Z,35.43
2019-02-19T08:52:24.066Z,36.70
2019-02-19T08:54:52.478Z,33.87
2019-02-19T08:57:20.951Z,34.50
2019-02-19T08:59:49.390Z,26.70
2019-02-19T09:02:17.880Z,30.00
2019-02-19T09:04:46.294Z,38.80
2019-02-19T09:07:14.703Z,33.20
2019-02-19T09:09:43.132Z,39.53
2019-02-19T09:12:11.680Z,36.10
2019-02-19T09:14:40.046Z,34.43
2019-02-19T09:17:08.450Z,29.80
2019-02-19T09:19:36.936Z,27.43
2019-02-19T09:22:05.407Z,33.13
2019-02-19T09:24:33.828Z,25.47
2019-02-19T09:27:02.235Z,28.23
2019-02-19T09:29:30.662Z,36.57
2019-02-19T09:31:59.078Z,30.67
2019-02-19T09:34:27.484Z,25.73
2019-02-19T09:36:55.911Z,30.63
2019-02-19T09:39:24.335Z,25.20
2019-02-19T09:41:52.789Z,25.40
2019-02-19T09:44:21.234Z,23.03
2019-02-19T09:46:49.661Z,21.13
2019-02-19T09:49:18.062Z,23.77
2019-02-19T09:51:46.542Z,22.77
2019-02-19T09:54:14.952Z,22.50
2019-02-19T09:56:43.359Z,22.67
2019-02-19T09:59:11.790Z,25.03
2019-02-19T10:01:40.658Z,31.70
2019-02-19T10:04:09.071Z,22.57
2019-02-19T10:06:37.544Z,21.13
2019-02-19T10:09:06.410Z,22.03
2019-02-19T10:11:34.818Z,17.20
2019-02-19T10:14:03.289Z,18.37
2019-02-19T10:16:31.716Z,18.73
2019-02-19T10:19:00.179Z,17.23
2019-02-19T10:21:28.776Z,19.00
2019-02-19T10:23:57.181Z,26.63
2019-02-19T10:26:25.587Z,18.50
2019-02-19T10:28:54.005Z,18.10
2019-02-19T10:31:22.406Z,16.50
2019-02-19T10:33:50.815Z,18.40
2019-02-19T10:36:19.309Z,20.80
2019-02-19T10:38:47.710Z,23.40
2019-02-19T10:41:16.125Z,15.80
2019-02-19T10:43:44.521Z,15.50
2019-02-19T10:46:12.944Z,18.03
2019-02-19T10:48:41.367Z,15.93
2019-02-19T10:51:09.756Z,20.03
2019-02-19T10:53:38.177Z,20.07
2019-02-19T10:56:06.652Z,19.27
2019-02-19T10:58:35.047Z,18.27
2019-02-19T11:01:03.447Z,18.53
2019-02-19T11:03:31.887Z,16.67
2019-02-19T11:06:00.285Z,24.13
2019-02-19T11:08:28.715Z,20.37
2019-02-19T11:10:57.119Z,16.10
2019-02-19T11:13:25.520Z,17.83
2019-02-19T11:15:53.946Z,25.83
2019-02-19T11:18:28.466Z,18.97
2019-02-19T11:20:52.544Z,16.40
2019-02-19T11:23:20.943Z,22.60
2019-02-19T11:25:49.364Z,16.70
2019-02-19T11:28:17.774Z,15.30
2019-02-19T11:30:46.196Z,13.93
2019-02-19T11:33:14.611Z,24.17
2019-02-19T11:35:42.998Z,13.13
2019-02-19T11:38:11.419Z,21.40
2019-02-19T11:40:39.829Z,16.50
2019-02-19T11:43:08.314Z,18.17
2019-02-19T11:45:36.707Z,17.20
2019-02-19T11:48:05.213Z,15.23
2019-02-19T11:50:33.634Z,22.10
2019-02-19T11:53:02.035Z,20.37
2019-02-19T11:55:30.482Z,19.43
2019-02-19T11:57:58.874Z,16.80
2019-02-19T12:00:44.292Z,16.43
2019-02-19T12:03:12.699Z,21.67
2019-02-19T12:05:41.148Z,14.37
2019-02-19T12:08:09.572Z,21.30
2019-02-19T12:10:37.968Z,23.07
2019-02-19T12:13:06.462Z,14.53
2019-02-19T12:15:35.604Z,17.90
2019-02-19T12:18:04.277Z,17.53
2019-02-19T12:20:32.687Z,14.97
2019-02-19T12:23:01.102Z,14.87
2019-02-19T12:25:29.513Z,15.20
2019-02-19T12:27:57.993Z,16.07
2019-02-19T12:30:26.436Z,15.40
2019-02-19T12:32:54.846Z,17.47
2019-02-19T12:35:23.333Z,13.47
2019-02-19T12:37:51.836Z,17.00
2019-02-19T12:40:20.236Z,15.50
2019-02-19T12:42:48.711Z,13.23
2019-02-19T12:45:17.202Z,18.63
2019-02-19T12:47:45.609Z,12.10
2019-02-19T12:50:18.556Z,22.40
2019-02-19T12:52:46.955Z,15.70
2019-02-19T12:55:15.419Z,10.37
2019-02-19T12:57:43.852Z,13.67
2019-02-19T13:00:15.026Z,14.20
2019-02-19T13:02:44.226Z,12.10
2019-02-19T13:05:14.126Z,16.67
2019-02-19T13:07:42.661Z,21.27
2019-02-19T13:10:12.201Z,13.90
2019-02-19T13:12:40.615Z,13.53
2019-02-19T13:15:12.107Z,10.47
2019-02-19T13:17:40.587Z,7.90
2019-02-19T13:20:14.353Z,11.07
2019-02-19T13:22:42.853Z,8.67
2019-02-19T13:25:11.996Z,10.00
2019-02-19T13:27:40.484Z,15.53
2019-02-19T13:30:17.429Z,13.63
2019-02-19T13:32:45.944Z,14.80
2019-02-19T13:35:14.447Z,12.20
2019-02-19T13:37:42.928Z,8.50
2019-02-19T13:40:13.667Z,12.30
2019-02-19T13:42:42.098Z,14.33
2019-02-19T13:45:13.464Z,13.80
2019-02-19T13:47:41.973Z,9.93
2019-02-19T13:50:13.631Z,17.60
2019-02-19T13:52:49.927Z,10.87
2019-02-19T13:55:19.958Z,11.80
2019-02-19T13:57:48.373Z,13.20
2019-02-19T14:00:18.600Z,13.30
2019-02-19T14:02:47.093Z,15.17
2019-02-19T14:05:15.525Z,6.70
2019-02-19T14:07:43.936Z,9.03
2019-02-19T14:10:12.917Z,14.67
2019-02-19T14:12:41.338Z,12.27
2019-02-19T14:15:16.045Z,11.20
2019-02-19T14:17:44.445Z,9.70
2019-02-19T14:20:14.507Z,13.43
2019-02-19T14:22:44.562Z,13.53
2019-02-19T14:25:26.631Z,8.27
2019-02-19T14:28:12.661Z,8.40
2019-02-19T14:30:42.771Z,12.60
2019-02-19T14:33:24.721Z,17.07
2019-02-19T14:36:09.827Z,13.43
2019-02-19T14:38:39.867Z,8.70
2019-02-19T14:41:26.264Z,13.83
2019-02-19T14:43:56.335Z,14.33
2019-02-19T14:46:29.255Z,9.10
2019-02-19T14:49:15.332Z,7.97
2019-02-19T14:51:57.153Z,12.17
2019-02-19T14:54:29.674Z,12.53
2019-02-19T14:57:42.606Z,10.20
2019-02-19T15:00:28.927Z,6.60
2019-02-19T15:03:15.159Z,15.20
2019-02-19T15:06:01.685Z,9.53
2019-02-19T15:08:31.751Z,16.60
2019-02-19T15:11:16.945Z,17.13
2019-02-19T15:13:47.050Z,11.40
2019-02-19T15:16:17.178Z,9.20
2019-02-19T15:18:52.942Z,13.67
2019-02-19T15:21:23.028Z,14.07
2019-02-19T15:23:56.267Z,9.40
2019-02-19T15:26:26.348Z,9.53
2019-02-19T15:29:02.280Z,10.40
2019-02-19T15:31:34.927Z,11.30
2019-02-19T15:34:07.021Z,11.53
2019-02-19T15:36:53.701Z,12.30
2019-02-19T15:42:24.685Z,12.97
2019-02-19T15:44:54.747Z,13.07
2019-02-19T15:47:24.796Z,15.10
2019-02-19T15:49:57.837Z,14.80
2019-02-19T15:52:27.887Z,12.73
2019-02-19T15:54:57.973Z,10.83
2019-02-19T15:57:33.928Z,11.70
2019-02-19T16:00:20.271Z,7.60
2019-02-19T16:02:59.167Z,9.50
2019-02-19T16:05:31.686Z,11.20
2019-02-19T16:08:04.743Z,9.13
2019-02-19T16:10:34.828Z,16.47
2019-02-19T16:13:08.055Z,9.50
2019-02-19T16:15:47.028Z,10.10
2019-02-19T16:18:19.931Z,8.53
2019-02-19T16:20:50.000Z,10.40
2019-02-19T16:23:20.058Z,9.87
2019-02-19T16:26:02.439Z,9.43
2019-02-19T16:28:35.707Z,15.13
2019-02-19T16:31:05.829Z,9.10
2019-02-19T16:33:41.520Z,12.70
2019-02-19T16:36:20.198Z,20.40
2019-02-19T16:38:53.045Z,13.73
2019-02-19T16:41:39.362Z,9.27
2019-02-19T16:44:15.139Z,13.20
2019-02-19T16:46:45.190Z,19.97
2019-02-19T16:49:18.009Z,19.17
2019-02-19T16:51:50.521Z,8.93
2019-02-19T16:54:32.315Z,12.17
2019-02-19T16:57:08.118Z,8.83
2019-02-19T16:59:53.279Z,16.03
2019-02-19T17:02:29.187Z,19.73
2019-02-19T17:05:01.975Z,17.60
2019-02-19T17:07:31.993Z,14.03
2019-02-19T17:10:20.403Z,13.50
2019-02-19T17:12:53.458Z,16.73
2019-02-19T17:15:23.618Z,14.63
2019-02-19T17:18:10.085Z,11.77
2019-02-19T17:20:58.453Z,11.13
2019-02-19T17:23:37.511Z,8.87
2019-02-19T17:26:13.498Z,15.10
2019-02-19T17:28:43.562Z,17.53
2019-02-19T17:31:25.843Z,9.50
2019-02-19T17:34:12.262Z,16.77
2019-02-19T17:36:42.392Z,18.20
2019-02-19T17:39:18.373Z,11.70
2019-02-19T17:41:57.334Z,16.50
2019-02-19T17:44:33.359Z,10.10
2019-02-19T17:47:14.412Z,13.97
2019-02-19T17:49:47.212Z,13.10
2019-02-19T17:52:32.163Z,17.20
2019-02-19T17:55:08.002Z,20.90
2019-02-19T17:57:44.104Z,15.60
2019-02-19T18:00:22.726Z,14.53
2019-02-19T18:02:58.346Z,12.87
2019-02-19T18:05:40.683Z,16.50
2019-02-19T18:08:25.551Z,16.83
2019-02-19T18:10:55.715Z,21.13
2019-02-19T18:13:42.035Z,16.00
2019-02-19T18:16:18.281Z,10.83
2019-02-19T18:18:53.006Z,23.77
2019-02-19T18:21:21.575Z,12.53
2019-02-19T18:23:50.066Z,21.03
2019-02-19T18:26:18.510Z,18.93
2019-02-19T18:28:46.899Z,8.23
2019-02-19T18:31:15.320Z,13.70
2019-02-19T18:33:43.824Z,15.40
2019-02-19T18:36:12.897Z,13.50
2019-02-19T18:38:41.361Z,11.03
2019-02-19T18:41:09.848Z,11.27
2019-02-19T18:43:38.293Z,14.20
2019-02-19T18:46:06.770Z,11.83
2019-02-19T18:48:35.192Z,13.83
2019-02-19T18:51:03.666Z,8.90
2019-02-19T18:53:32.107Z,14.67
2019-02-19T18:56:00.560Z,10.73
2019-02-19T18:58:29.127Z,12.17
2019-02-19T19:00:58.132Z,12.57
2019-02-19T19:03:26.604Z,22.20
2019-02-19T19:05:55.108Z,22.03
2019-02-19T19:08:23.506Z,20.30
2019-02-19T19:10:51.935Z,15.13
2019-02-19T19:13:20.414Z,14.43
2019-02-19T19:15:49.115Z,23.97
2019-02-19T19:18:19.197Z,14.77
2019-02-19T19:20:47.971Z,13.53
2019-02-19T19:23:16.360Z,12.60
2019-02-19T19:25:44.915Z,16.43
2019-02-19T19:28:13.409Z,20.97
2019-02-19T19:30:41.813Z,8.87
2019-02-19T19:33:10.241Z,13.53
2019-02-19T19:35:40.343Z,24.53
2019-02-19T19:38:08.812Z,13.77
2019-02-19T19:40:37.218Z,18.63
2019-02-19T19:43:05.674Z,18.60
2019-02-19T19:45:34.070Z,13.07
2019-02-19T19:48:02.601Z,20.90
2019-02-19T19:50:31.080Z,14.03
2019-02-19T19:52:59.564Z,17.00
2019-02-19T19:55:27.989Z,18.90
2019-02-19T19:57:56.457Z,13.53
2019-02-19T20:00:24.972Z,12.73
2019-02-19T20:02:53.451Z,18.37
2019-02-19T20:05:21.867Z,18.87
2019-02-19T20:07:50.311Z,17.73
2019-02-19T20:10:18.778Z,13.17
2019-02-19T20:12:47.214Z,22.53
2019-02-19T20:15:15.672Z,19.63
2019-02-19T20:17:44.062Z,11.23
2019-02-19T20:20:13.000Z,15.77
2019-02-19T20:22:41.418Z,25.27
2019-02-19T20:25:14.136Z,14.10
2019-02-19T20:27:42.591Z,20.10
2019-02-19T20:30:15.507Z,15.43
2019-02-19T20:32:44.000Z,15.43
2019-02-19T20:35:12.556Z,16.53
2019-02-19T20:37:41.284Z,19.50
2019-02-19T20:40:11.630Z,15.40
2019-02-19T20:42:40.143Z,16.23
2019-02-19T20:45:10.779Z,22.67
2019-02-19T20:47:39.209Z,21.10
2019-02-19T20:50:12.697Z,20.70
2019-02-19T20:52:41.174Z,18.70
2019-02-19T20:55:11.226Z,15.23
2019-02-19T20:57:39.662Z,17.83
2019-02-19T21:00:18.529Z,18.50
2019-02-19T21:02:47.497Z,14.50
2019-02-19T21:05:16.035Z,20.00
2019-02-19T21:07:45.299Z,19.63
2019-02-19T21:10:22.828Z,13.23
2019-02-19T21:12:51.260Z,13.50
2019-02-19T21:15:19.804Z,12.50
2019-02-19T21:17:48.273Z,13.63
2019-02-19T21:20:16.890Z,20.93
2019-02-19T21:22:45.382Z,13.13
2019-02-19T21:25:13.961Z,15.70
2019-02-19T21:27:42.353Z,13.93
2019-02-19T21:30:15.363Z,15.30
2019-02-19T21:32:43.791Z,16.60
2019-02-19T21:35:12.263Z,10.63
2019-02-19T21:37:40.681Z,15.23
2019-02-19T21:40:11.118Z,13.43
2019-02-19T21:42:39.548Z,18.10
2019-02-19T21:45:10.419Z,10.93
2019-02-19T21:47:38.848Z,16.73
2019-02-19T21:50:09.511Z,13.73
2019-02-19T21:52:37.923Z,18.47
2019-02-19T21:55:08.484Z,13.00
2019-02-19T21:57:36.991Z,9.63
2019-02-19T22:00:09.130Z,17.20
2019-02-19T22:02:37.593Z,12.50
2019-02-19T22:05:07.349Z,18.27
2019-02-19T22:07:35.760Z,15.17
2019-02-19T22:10:05.590Z,17.37
2019-02-19T22:12:33.995Z,16.77
2019-02-19T22:15:02.427Z,15.23
2019-02-19T22:17:30.922Z,26.73
2019-02-19T22:20:03.181Z,15.50
2019-02-19T22:22:29.727Z,12.10
2019-02-19T22:24:58.187Z,14.50
2019-02-19T22:27:26.598Z,14.00
2019-02-19T22:29:55.002Z,10.93
2019-02-19T22:32:23.435Z,19.63
2019-02-19T22:34:51.916Z,9.00
2019-02-19T22:37:20.347Z,15.83
2019-02-19T22:39:48.734Z,10.70
2019-02-19T22:42:17.231Z,12.20
2019-02-19T22:44:45.639Z,17.50
2019-02-19T22:47:14.051Z,14.23
2019-02-19T22:49:42.458Z,14.60
2019-02-19T22:52:12.839Z,9.50
2019-02-19T22:54:42.953Z,16.77
2019-02-19T22:57:11.440Z,14.37
2019-02-19T22:59:39.846Z,11.50
2019-02-19T23:02:10.152Z,14.27
2019-02-19T23:04:38.574Z,11.17
2019-02-19T23:07:07.042Z,12.03
2019-02-19T23:09:35.458Z,21.40
2019-02-19T23:12:03.849Z,14.53
2019-02-19T23:14:32.263Z,13.77
2019-02-19T23:17:00.667Z,13.07
2019-02-19T23:19:29.070Z,9.80
2019-02-19T23:21:57.531Z,16.23
2019-02-19T23:24:25.997Z,10.17
2019-02-19T23:26:54.434Z,14.07
2019-02-19T23:29:22.842Z,8.57
2019-02-19T23:31:51.262Z,15.00
2019-02-19T23:34:19.687Z,11.63
2019-02-19T23:36:49.730Z,13.80
2019-02-19T23:39:18.165Z,13.30
2019-02-19T23:41:46.573Z,13.10
2019-02-19T23:44:14.967Z,15.37
2019-02-19T23:46:44.074Z,10.03
2019-02-19T23:49:12.566Z,13.10
2019-02-19T23:51:41.066Z,12.80
2019-02-19T23:54:09.496Z,9.70
2019-02-19T23:56:37.920Z,10.17
2019-02-19T23:59:06.329Z,11.73
